Time;durP1;ratioP1;P1;durP2;ratioP2;P2;SDS_P1;SDS_P2;PMS_P1;PMS_P2;Temp;Humidity;BMP_temperature;BMP_pressure;BME280_temperature;BME280_humidity;BME280_pressure;Samples;Min_cycle;Max_cycle;Signal;HPM_P1;HPM_P2
2024/04/01 00:00:01;;;;;;;21.92;12.15;;;;;;;10.78;100.00;98883.00;4910268;29;20423;-83
2024/04/01 00:02:27;;;;;;;18.95;11.25;;;;;;;10.76;100.00;98874.34;4913752;29;20052;-84
2024/04/01 00:04:55;;;;;;;23.35;11.55;;;;;;;10.75;100.00;98876.13;4906173;29;20112;-86
2024/04/01 00:07:20;;;;;;;26.15;13.90;;;;;;;10.74;100.00;98874.41;4895056;29;20130;-84
2024/04/01 00:09:47;;;;;;;23.17;11.98;;;;;;;10.74;100.00;98873.53;4898524;29;20131;-84
2024/04/01 00:12:13;;;;;;;25.27;11.07;;;;;;;10.74;100.00;98877.03;4887960;29;20052;-84
2024/04/01 00:14:40;;;;;;;23.80;12.68;;;;;;;10.72;100.00;98868.38;4881558;29;20040;-85
2024/04/01 00:17:05;;;;;;;21.20;11.88;;;;;;;10.72;100.00;98875.38;4899286;29;20063;-85
2024/04/01 00:19:34;;;;;;;20.48;12.70;;;;;;;10.73;100.00;98877.09;4884951;29;20044;-84
2024/04/01 00:22:03;;;;;;;21.52;12.30;;;;;;;10.72;100.00;98878.84;4881564;29;20665;-84
2024/04/01 00:24:29;;;;;;;19.17;11.98;;;;;;;10.72;100.00;98878.00;4918329;29;20035;-84
2024/04/01 00:27:10;;;;;;;24.75;11.85;;;;;;;10.71;100.00;98874.50;4902617;29;20051;-86
2024/04/01 00:29:39;;;;;;;24.95;12.57;;;;;;;10.70;100.00;98887.66;4901025;29;20052;-84
2024/04/01 00:32:06;;;;;;;21.95;12.55;;;;;;;10.67;100.00;98886.00;4884302;29;20135;-84
2024/04/01 00:34:32;;;;;;;25.70;13.07;;;;;;;10.63;100.00;98892.28;4907216;29;20041;-85
2024/04/01 00:36:58;;;;;;;21.92;11.80;;;;;;;10.63;100.00;98894.06;4910342;29;20669;-84
2024/04/01 00:39:24;;;;;;;24.42;12.02;;;;;;;10.61;100.00;98891.47;4895871;29;20067;-84
2024/04/01 00:41:50;;;;;;;20.60;11.43;;;;;;;10.58;100.00;98892.44;4875214;29;20109;-85
2024/04/01 00:44:17;;;;;;;28.90;13.73;;;;;;;10.59;100.00;98895.94;4892214;29;20096;-83
2024/04/01 00:46:46;;;;;;;22.63;12.20;;;;;;;10.57;100.00;98898.59;4888433;29;20497;-84
2024/04/01 00:49:13;;;;;;;21.15;12.07;;;;;;;10.54;100.00;98893.47;4885582;29;20055;-84
2024/04/01 00:51:39;;;;;;;24.85;11.23;;;;;;;10.52;100.00;98877.00;4897225;29;20044;-86
2024/04/01 00:54:09;;;;;;;24.38;12.70;;;;;;;10.51;100.00;98877.91;4900791;29;20048;-84
2024/04/01 00:56:36;;;;;;;25.60;12.27;;;;;;;10.49;100.00;98874.47;4873330;29;20104;-83
2024/04/01 00:59:06;;;;;;;22.73;12.40;;;;;;;10.48;100.00;98864.06;4873621;29;20053;-84
2024/04/01 01:01:38;;;;;;;22.48;11.93;;;;;;;10.47;100.00;98858.00;4891081;29;20655;-84
2024/04/01 01:04:08;;;;;;;23.70;13.60;;;;;;;10.46;100.00;98855.44;4886239;29;20052;-85
2024/04/01 01:06:36;;;;;;;19.98;12.40;;;;;;;10.44;100.00;98852.84;4875129;29;20072;-84
2024/04/01 01:09:03;;;;;;;27.92;13.02;;;;;;;10.42;100.00;98842.47;4889042;29;20044;-84
2024/04/01 01:11:29;;;;;;;18.60;11.73;;;;;;;10.42;100.00;98836.38;4886961;29;20060;-83
2024/04/01 01:13:55;;;;;;;26.23;12.48;;;;;;;10.43;100.00;98832.88;4886581;29;20048;-83
2024/04/01 01:16:21;;;;;;;21.55;12.10;;;;;;;10.43;100.00;98831.09;4892433;29;20661;-85
2024/04/01 01:18:51;;;;;;;24.25;13.23;;;;;;;10.43;100.00;98828.47;4890883;29;20047;-83
2024/04/01 01:21:17;;;;;;;30.63;12.68;;;;;;;10.43;100.00;98830.25;4861040;29;20115;-84
2024/04/01 01:23:44;;;;;;;25.55;13.65;;;;;;;10.42;100.00;98837.22;4870592;29;20025;-85
2024/04/01 01:26:13;;;;;;;23.90;13.77;;;;;;;10.41;100.00;98822.44;4893999;29;20048;-84
2024/04/01 01:28:41;;;;;;;19.73;12.82;;;;;;;10.40;100.00;98822.50;4887090;29;20044;-84
2024/04/01 01:31:06;;;;;;;21.55;12.52;;;;;;;10.38;100.00;98814.72;4868317;29;20745;-85
2024/04/01 01:33:35;;;;;;;21.63;12.05;;;;;;;10.35;100.00;98812.22;4892178;29;20113;-84
2024/04/01 01:36:01;;;;;;;24.52;14.48;;;;;;;10.33;100.00;98814.00;4884873;29;20568;-85
2024/04/01 01:38:28;;;;;;;26.15;13.70;;;;;;;10.30;100.00;98814.13;4884592;29;20080;-83
2024/04/01 01:40:54;;;;;;;17.67;12.10;;;;;;;10.29;100.00;98809.81;4880114;29;20067;-84
2024/04/01 01:43:23;;;;;;;25.27;12.68;;;;;;;10.27;100.00;98804.63;4910289;29;20044;-85
2024/04/01 01:45:48;;;;;;;28.48;13.55;;;;;;;10.23;100.00;98805.66;4903684;29;20055;-85
2024/04/01 01:48:15;;;;;;;21.48;12.88;;;;;;;10.23;100.00;98807.41;4918413;29;20127;-84
2024/04/01 01:50:41;;;;;;;19.75;12.60;;;;;;;10.21;100.00;98807.47;4891093;29;20044;-84
2024/04/01 01:53:09;;;;;;;23.08;12.30;;;;;;;10.19;100.00;98804.03;4898672;29;20055;-85
2024/04/01 01:55:35;;;;;;;26.85;14.55;;;;;;;10.18;100.00;98809.34;4903559;29;20083;-85
2024/04/01 01:58:02;;;;;;;20.05;12.88;;;;;;;10.16;100.00;98814.63;4912858;29;20028;-85
2024/04/01 02:00:28;;;;;;;19.23;12.23;;;;;;;10.16;100.00;98819.88;4912381;29;20048;-84
2024/04/01 02:02:56;;;;;;;26.80;13.30;;;;;;;10.13;100.00;98820.00;4908658;29;20078;-84
2024/04/01 02:05:21;;;;;;;24.67;13.52;;;;;;;10.14;100.00;98826.06;4896376;29;20061;-84
2024/04/01 02:07:48;;;;;;;26.60;12.30;;;;;;;10.10;100.00;98823.56;4909982;29;20481;-83
2024/04/01 02:10:21;;;;;;;21.83;12.43;;;;;;;10.10;100.00;98828.78;4913418;29;20103;-85
2024/04/01 02:12:49;;;;;;;25.27;14.38;;;;;;;10.08;100.00;98825.38;4904361;29;20127;-84
2024/04/01 02:15:24;;;;;;;23.52;13.38;;;;;;;10.10;100.00;98825.31;4906241;29;20051;-84
2024/04/01 02:17:51;;;;;;;21.92;13.50;;;;;;;10.08;100.00;98825.38;4903101;29;20080;-85
2024/04/01 02:20:20;;;;;;;26.77;12.98;;;;;;;10.07;100.00;98810.59;4914923;29;20104;-85
2024/04/01 02:22:47;;;;;;;23.70;13.70;;;;;;;10.07;100.00;98820.19;4882935;29;20044;-86
2024/04/01 02:25:17;;;;;;;28.08;12.98;;;;;;;10.06;100.00;98818.50;4905419;29;20615;-86
2024/04/01 02:27:48;;;;;;;28.45;14.10;;;;;;;10.06;100.00;98821.97;4902664;29;20055;-85
2024/04/01 02:30:14;;;;;;;27.75;14.80;;;;;;;10.05;100.00;98816.78;4898414;29;20123;-85
2024/04/01 02:32:40;;;;;;;24.17;13.70;;;;;;;10.06;100.00;98808.03;4898000;29;20048;-84
2024/04/01 02:35:07;;;;;;;28.23;13.63;;;;;;;10.05;100.00;98812.41;4923892;29;20091;-84
2024/04/01 02:37:33;;;;;;;33.22;15.18;;;;;;;10.06;100.00;98818.50;4905050;29;20028;-83
2024/04/01 02:40:00;;;;;;;25.80;14.07;;;;;;;10.05;100.00;98804.56;4886789;29;20551;-83
2024/04/01 02:42:25;;;;;;;27.08;13.55;;;;;;;10.06;100.00;98808.91;4891091;29;20056;-83
2024/04/01 02:44:52;;;;;;;23.35;12.82;;;;;;;10.06;100.00;98808.91;4891506;29;20404;-83
2024/04/01 02:47:18;;;;;;;28.20;13.68;;;;;;;10.06;100.00;98805.41;4897153;29;20055;-84
2024/04/01 02:49:45;;;;;;;21.30;13.38;;;;;;;10.05;100.00;98798.47;4882127;29;20063;-84
2024/04/01 02:52:11;;;;;;;27.90;12.95;;;;;;;10.03;100.00;98790.69;4897604;29;20133;-84
2024/04/01 02:54:38;;;;;;;28.38;13.23;;;;;;;10.02;100.00;98786.38;4879767;29;20048;-85
2024/04/01 02:57:05;;;;;;;20.00;13.85;;;;;;;10.01;100.00;98765.53;4878723;29;20052;-84
2024/04/01 02:59:35;;;;;;;26.23;15.15;;;;;;;10.00;100.00;98743.78;4883820;29;20051;-83
2024/04/01 03:02:01;;;;;;;21.75;13.85;;;;;;;10.00;100.00;98755.97;4895203;29;20067;-84
2024/04/01 03:04:28;;;;;;;23.80;13.73;;;;;;;10.01;100.00;98763.78;4897848;29;20457;-84
2024/04/01 03:06:54;;;;;;;22.67;13.63;;;;;;;10.02;100.00;98755.00;4898414;29;20056;-86
2024/04/01 03:09:20;;;;;;;27.27;13.57;;;;;;;10.03;100.00;98746.25;4895266;29;20520;-84
2024/04/01 03:11:46;;;;;;;28.88;15.32;;;;;;;10.01;100.00;98739.38;4873509;29;20067;-85
2024/04/01 03:14:12;;;;;;;26.60;14.70;;;;;;;10.02;100.00;98730.63;4885307;29;20041;-83
2024/04/01 03:16:38;;;;;;;30.30;13.70;;;;;;;10.01;100.00;98732.41;4911768;29;20049;-84
2024/04/01 03:19:05;;;;;;;26.48;15.60;;;;;;;10.02;100.00;98728.03;4885401;29;20467;-84
2024/04/01 03:21:30;;;;;;;30.13;15.07;;;;;;;10.00;100.00;98732.44;4893674;29;20044;-84
2024/04/01 03:23:58;;;;;;;23.27;14.30;;;;;;;10.00;100.00;98737.66;4898697;29;20056;-84
2024/04/01 03:26:25;;;;;;;21.90;14.38;;;;;;;9.97;100.00;98743.88;4911247;29;20139;-84
2024/04/01 03:28:51;;;;;;;26.88;13.75;;;;;;;9.93;100.00;98748.38;4878617;29;20440;-83
2024/04/01 03:31:17;;;;;;;22.67;15.15;;;;;;;9.92;100.00;98749.28;4879149;29;20052;-82
2024/04/01 03:33:45;;;;;;;18.70;13.07;;;;;;;9.90;100.00;98738.00;4880366;29;20052;-84
2024/04/01 03:36:11;;;;;;;22.58;14.88;;;;;;;9.90;100.00;98732.78;4878926;29;20084;-84
2024/04/01 03:38:37;;;;;;;25.88;15.82;;;;;;;9.92;100.00;98730.09;4889648;29;20080;-84
2024/04/01 03:41:04;;;;;;;21.83;13.15;;;;;;;9.92;100.00;98738.81;4901864;29;20055;-83
2024/04/01 03:43:30;;;;;;;30.10;15.43;;;;;;;9.92;100.00;98737.94;4883793;29;20044;-84
2024/04/01 03:46:02;;;;;;;21.17;14.27;;;;;;;9.90;100.00;98745.00;4882836;29;20056;-85
2024/04/01 03:48:28;;;;;;;26.17;15.07;;;;;;;9.90;100.00;98747.63;4881084;29;20048;-82
2024/04/01 03:50:57;;;;;;;28.98;14.43;;;;;;;9.91;100.00;98744.13;4878945;29;20056;-83
2024/04/01 03:53:22;;;;;;;23.80;15.38;;;;;;;9.91;100.00;98741.50;4879529;29;20164;-83
2024/04/01 03:55:49;;;;;;;22.70;14.88;;;;;;;9.96;100.00;98749.16;4884333;29;20889;-84
2024/04/01 03:58:15;;;;;;;22.48;13.63;;;;;;;10.01;100.00;98758.56;4868713;29;20048;-84
2024/04/01 04:00:42;;;;;;;21.42;14.38;;;;;;;10.04;100.00;98770.66;4885620;29;20080;-83
2024/04/01 04:03:07;;;;;;;18.77;13.52;;;;;;;10.04;100.00;98766.25;4868743;29;20052;-85
2024/04/01 04:05:36;;;;;;;22.50;13.68;;;;;;;10.08;100.00;98773.09;4879378;29;20048;-85
2024/04/01 04:08:02;;;;;;;29.88;15.18;;;;;;;10.08;100.00;98762.63;4880299;29;20108;-84
2024/04/01 04:10:39;;;;;;;24.73;14.50;;;;;;;10.06;100.00;98753.13;4879674;29;20053;-86
2024/04/01 04:13:05;;;;;;;24.00;15.63;;;;;;;10.04;100.00;98739.28;4910740;29;20047;-86
2024/04/01 04:15:32;;;;;;;25.70;15.30;;;;;;;10.01;100.00;98724.56;4897488;29;20064;-84
2024/04/01 04:17:59;;;;;;;23.27;13.82;;;;;;;10.02;100.00;98718.41;4894296;29;20057;-85
2024/04/01 04:20:32;;;;;;;23.05;15.38;;;;;;;10.04;100.00;98705.31;4878323;29;20040;-85
2024/04/01 04:22:57;;;;;;;21.65;14.60;;;;;;;10.00;100.00;98693.22;4888875;29;20062;-83
2024/04/01 04:25:24;;;;;;;26.52;14.80;;;;;;;10.00;100.00;98682.78;4889548;29;20048;-86
2024/04/01 04:27:50;;;;;;;19.20;12.45;;;;;;;10.02;100.00;98684.41;4867248;29;20130;-85
2024/04/01 04:30:16;;;;;;;24.20;14.73;;;;;;;10.02;100.00;98684.41;4881099;29;20045;-84
2024/04/01 04:32:43;;;;;;;23.17;14.13;;;;;;;10.04;100.00;98681.78;4869845;29;20076;-85
2024/04/01 04:35:13;;;;;;;22.13;13.65;;;;;;;10.03;100.00;98670.44;4886744;29;20104;-84
2024/04/01 04:37:39;;;;;;;25.30;14.18;;;;;;;10.03;100.00;98667.00;4883881;29;20058;-84
2024/04/01 04:40:10;;;;;;;21.83;13.57;;;;;;;10.03;100.00;98652.16;4874839;29;20519;-85
2024/04/01 04:42:36;;;;;;;25.38;15.40;;;;;;;10.03;100.00;98657.38;4904764;29;20442;-86
2024/04/01 04:45:02;;;;;;;26.70;13.57;;;;;;;10.00;100.00;98651.41;4901259;29;20068;-85
2024/04/01 04:47:28;;;;;;;23.25;13.23;;;;;;;9.99;100.00;98653.19;4899807;29;20055;-84
2024/04/01 04:49:54;;;;;;;22.65;13.18;;;;;;;9.99;100.00;98645.34;4904502;29;20048;-85
2024/04/01 04:52:20;;;;;;;24.80;14.18;;;;;;;10.02;100.00;98649.59;4899547;29;20948;-85
2024/04/01 04:54:47;;;;;;;23.42;13.00;;;;;;;10.04;100.00;98650.41;4901131;29;20092;-85
2024/04/01 04:57:12;;;;;;;16.38;12.10;;;;;;;10.04;100.00;98660.88;4877672;29;20071;-84
2024/04/01 04:59:39;;;;;;;24.98;12.65;;;;;;;10.02;100.00;98665.28;4903650;29;20080;-85
2024/04/01 05:02:07;;;;;;;18.40;12.30;;;;;;;10.05;100.00;98667.78;4903144;29;20055;-85
2024/04/01 05:04:34;;;;;;;20.70;13.52;;;;;;;10.05;100.00;98673.88;4914503;29;20027;-84
2024/04/01 05:07:06;;;;;;;25.15;13.48;;;;;;;10.02;100.00;98663.50;4900785;29;20052;-84
2024/04/01 05:09:32;;;;;;;19.48;13.30;;;;;;;10.02;100.00;98665.28;4899490;29;20055;-83
2024/04/01 05:11:59;;;;;;;23.60;14.13;;;;;;;10.04;100.00;98666.09;4903021;29;20063;-85
2024/04/01 05:14:24;;;;;;;31.98;13.60;;;;;;;10.04;100.00;98666.09;4900168;29;20042;-85
2024/04/01 05:16:53;;;;;;;20.13;13.55;;;;;;;10.04;100.00;98666.94;4891313;29;20075;-83
2024/04/01 05:19:20;;;;;;;26.63;13.88;;;;;;;10.07;100.00;98658.97;4910070;29;20079;-84
2024/04/01 05:21:47;;;;;;;21.20;12.32;;;;;;;9.99;100.00;98649.72;4888182;29;20411;-84
2024/04/01 05:24:14;;;;;;;24.42;13.05;;;;;;;9.99;100.00;98657.56;4900335;29;20055;-83
2024/04/01 05:26:43;;;;;;;18.10;12.63;;;;;;;10.01;100.00;98658.34;4900946;29;20055;-83
2024/04/01 05:29:09;;;;;;;27.85;14.88;;;;;;;10.07;100.00;98663.34;4886488;29;20050;-84
2024/04/01 05:31:37;;;;;;;19.92;13.57;;;;;;;10.03;100.00;98667.84;4904931;29;20044;-84
2024/04/01 05:34:03;;;;;;;27.45;13.82;;;;;;;10.06;100.00;98678.19;4897873;29;20071;-84
2024/04/01 05:36:33;;;;;;;27.55;13.60;;;;;;;10.09;100.00;98677.22;4904755;29;20048;-85
2024/04/01 05:39:05;;;;;;;31.65;13.27;;;;;;;10.01;100.00;98668.81;4910340;29;20526;-85
2024/04/01 05:41:39;;;;;;;23.33;14.05;;;;;;;9.94;100.00;98661.19;4907353;29;20066;-86
2024/04/01 05:44:07;;;;;;;19.90;13.23;;;;;;;9.94;100.00;98655.13;4892422;29;20046;-85
2024/04/01 05:46:34;;;;;;;19.58;12.90;;;;;;;9.88;100.00;98656.22;4900410;29;20162;-84
2024/04/01 05:48:59;;;;;;;29.08;15.90;;;;;;;9.94;100.00;98676.88;4891726;29;20044;-85
2024/04/01 05:52:08;;;;;;;23.92;13.07;;;;;;;10.00;100.00;98688.88;4889618;29;20040;-87
2024/04/01 05:54:38;;;;;;;21.00;12.60;;;;;;;9.98;100.00;98698.53;4920682;29;20045;-85
2024/04/01 05:57:07;;;;;;;25.95;14.43;;;;;;;10.00;100.00;98722.00;4897999;29;20412;-84
2024/04/01 05:59:46;;;;;;;26.65;13.07;;;;;;;10.00;100.00;98735.06;4892634;29;20845;-83
2024/04/01 06:02:15;;;;;;;19.92;13.27;;;;;;;10.08;100.00;98739.09;4908182;29;20161;-84
2024/04/01 06:04:41;;;;;;;20.70;13.88;;;;;;;9.99;100.00;98739.44;4881699;29;20062;-85
2024/04/01 06:07:08;;;;;;;25.23;14.00;;;;;;;9.97;100.00;98738.63;4892417;29;20040;-83
2024/04/01 06:09:35;;;;;;;21.58;14.93;;;;;;;10.02;100.00;98723.63;4891422;29;20063;-85
2024/04/01 06:12:03;;;;;;;26.00;14.68;;;;;;;9.98;100.00;98716.81;4907439;29;20555;-86
2024/04/01 06:14:29;;;;;;;20.17;13.32;;;;;;;9.98;100.00;98708.97;4894146;29;20044;-85
2024/04/01 06:16:59;;;;;;;22.85;14.23;;;;;;;9.91;100.00;98710.97;4892584;29;20063;-84
2024/04/01 06:19:35;;;;;;;26.23;15.85;;;;;;;9.91;100.00;98691.84;4906702;29;20832;-83
2024/04/01 06:22:11;;;;;;;21.70;13.52;;;;;;;9.86;100.00;98693.78;4898366;29;20055;-84
2024/04/01 06:24:43;;;;;;;;;;;;;;;9.81;100.00;98703.53;4910738;29;20116;-84
2024/04/01 06:27:22;;;;;;;19.30;12.75;;;;;;;9.76;100.00;98724.59;4929555;29;19927;-85
2024/04/01 06:30:06;;;;;;;25.98;15.18;;;;;;;9.66;100.00;98745.00;4917543;29;20066;-84
2024/04/01 06:35:42;;;;;;;20.38;14.88;;;;;;;9.60;100.00;98727.78;4914288;29;20036;-84
2024/04/01 06:38:09;;;;;;;26.80;15.43;;;;;;;9.56;100.00;98728.78;4895682;29;20048;-86
2024/04/01 06:40:49;;;;;;;17.98;14.60;;;;;;;9.54;100.00;98717.56;4920344;29;20059;-85
2024/04/01 06:43:23;;;;;;;26.70;16.55;;;;;;;9.52;100.00;98721.13;4902218;28;20052;-84
2024/04/01 06:46:13;;;;;;;32.22;17.55;;;;;;;9.53;100.00;98723.69;4906202;29;20522;-84
2024/04/01 06:48:44;;;;;;;24.10;15.35;;;;;;;9.54;100.00;98711.47;4912649;29;20067;-84
2024/04/01 06:51:12;;;;;;;24.38;17.05;;;;;;;9.58;100.00;98705.22;4917587;29;20068;-85
2024/04/01 06:53:38;;;;;;;28.48;16.90;;;;;;;9.57;100.00;98700.94;4899062;29;20063;-84
2024/04/01 06:56:05;;;;;;;24.98;16.48;;;;;;;9.51;100.00;98677.63;4885882;29;20606;-86
2024/04/01 06:58:31;;;;;;;27.83;17.30;;;;;;;9.52;100.00;98664.53;4895546;29;20586;-84
2024/04/01 07:00:58;;;;;;;28.65;19.23;;;;;;;9.51;100.00;98669.81;4889984;29;20056;-85
2024/04/01 07:03:32;;;;;;;28.08;19.02;;;;;;;9.56;100.00;98663.50;4905227;29;20047;-85
2024/04/01 07:06:00;;;;;;;25.23;17.75;;;;;;;9.61;100.00;98671.16;4884049;29;20440;-89
2024/04/01 07:08:26;;;;;;;32.20;19.38;;;;;;;9.70;100.00;98696.94;4899391;29;20044;-87
2024/04/01 07:10:54;;;;;;;34.03;20.35;;;;;;;9.68;100.00;98698.75;4914005;29;20048;-88
2024/04/01 07:13:19;;;;;;;28.40;18.42;;;;;;;9.68;100.00;98697.91;4901308;29;20036;-89
2024/04/01 07:15:46;;;;;;;32.45;18.40;;;;;;;9.75;100.00;98679.34;4906797;29;20484;-88
2024/04/01 07:18:19;;;;;;;28.00;18.20;;;;;;;9.85;100.00;98669.38;4917672;29;20036;-89
2024/04/01 07:20:46;;;;;;;31.63;18.08;;;;;;;9.83;100.00;98659.91;4914755;29;20052;-89
2024/04/01 07:23:12;;;;;;;32.08;18.95;;;;;;;9.90;100.00;98662.22;4912960;29;20052;-88
2024/04/01 07:25:41;;;;;;;24.92;15.65;;;;;;;9.93;100.00;98664.75;4919201;29;20095;-85
2024/04/01 07:28:07;;;;;;;31.02;18.30;;;;;;;10.03;100.00;98669.59;4884834;29;20066;-83
2024/04/01 07:30:34;;;;;;;31.00;18.15;;;;;;;10.06;100.00;98662.50;4886979;29;20524;-84
2024/04/01 07:33:00;;;;;;;33.05;19.05;;;;;;;10.11;100.00;98672.78;4896489;29;20302;-85
2024/04/01 07:35:26;;;;;;;26.27;16.55;;;;;;;10.13;100.00;98680.53;4890685;29;20080;-83
2024/04/01 07:37:52;;;;;;;29.88;17.67;;;;;;;10.17;100.00;98680.38;4910783;29;20059;-84
2024/04/01 07:40:21;;;;;;;28.80;18.75;;;;;;;10.17;100.00;98669.06;4910675;29;20047;-83
2024/04/01 07:42:48;;;;;;;28.73;17.40;;;;;;;10.14;100.00;98670.03;4850432;29;1026946;-83
2024/04/01 07:45:16;;;;;;;30.20;17.83;;;;;;;10.19;100.00;98677.69;4876001;29;20136;-82
2024/04/01 07:47:42;;;;;;;27.08;16.92;;;;;;;10.33;100.00;98682.41;4881180;29;20119;-84
2024/04/01 07:50:09;;;;;;;26.88;18.55;;;;;;;10.38;100.00;98689.16;4881092;29;20072;-85
2024/04/01 07:52:35;;;;;;;31.92;17.92;;;;;;;10.42;100.00;98700.38;4876521;29;20052;-84
2024/04/01 07:55:06;;;;;;;27.42;19.30;;;;;;;10.27;100.00;98704.38;4887614;29;20076;-84
2024/04/01 07:57:32;;;;;;;33.35;17.27;;;;;;;10.32;100.00;98725.97;4895515;29;20049;-85
2024/04/01 08:00:00;;;;;;;26.85;17.30;;;;;;;10.35;100.00;98714.56;4882373;29;20577;-85
2024/04/01 08:02:27;;;;;;;29.15;19.65;;;;;;;10.33;100.00;98719.00;4879872;29;20407;-83
2024/04/01 08:04:54;;;;;;;27.10;18.40;;;;;;;10.34;100.00;98718.94;4867525;29;20137;-84
2024/04/01 08:07:20;;;;;;;30.10;19.23;;;;;;;10.41;100.00;98716.97;4899894;29;20051;-85
2024/04/01 08:09:47;;;;;;;38.25;20.05;;;;;;;10.57;100.00;98711.97;4867836;29;20052;-85
2024/04/01 08:12:12;;;;;;;31.33;21.08;;;;;;;10.62;100.00;98709.19;4880604;29;20052;-83
2024/04/01 08:14:40;;;;;;;36.88;20.55;;;;;;;10.63;100.00;98709.13;4886276;29;21654;-83
2024/04/01 08:17:07;;;;;;;33.00;19.88;;;;;;;10.67;100.00;98705.44;4851967;29;20064;-83
2024/04/01 08:19:36;;;;;;;32.05;20.15;;;;;;;10.69;100.00;98693.16;4884045;29;20738;-83
2024/04/01 08:22:03;;;;;;;38.00;20.00;;;;;;;10.72;100.00;98700.88;4899653;29;20036;-83
2024/04/01 08:24:28;;;;;;;30.83;20.10;;;;;;;10.63;100.00;98693.41;4883802;29;20072;-82
2024/04/01 08:26:55;;;;;;;34.17;20.88;;;;;;;10.62;100.00;98689.09;4867893;29;20053;-83
2024/04/01 08:29:21;;;;;;;29.17;19.38;;;;;;;10.74;100.00;98685.13;4867827;29;20082;-84
2024/04/01 08:31:47;;;;;;;37.38;20.70;;;;;;;10.89;100.00;98681.03;4869555;29;20194;-83
2024/04/01 08:34:13;;;;;;;32.90;21.13;;;;;;;11.03;100.00;98667.34;4893665;29;20052;-82
2024/04/01 08:36:40;;;;;;;33.65;20.88;;;;;;;11.04;100.00;98663.81;4865211;29;20052;-83
2024/04/01 08:39:07;;;;;;;33.13;21.23;;;;;;;10.95;100.00;98669.44;4881841;29;20051;-84
2024/04/01 08:41:40;;;;;;;30.77;20.48;;;;;;;10.90;100.00;98659.19;4884860;29;20413;-83
2024/04/01 08:44:16;;;;;;;36.50;24.33;;;;;;;10.95;100.00;98659.84;4907498;29;20083;-83
2024/04/01 08:46:49;;;;;;;39.38;22.77;;;;;;;10.85;100.00;98669.81;4881513;29;20048;-83
2024/04/01 08:49:15;;;;;;;36.30;21.58;;;;;;;10.93;100.00;98664.28;4896898;29;20066;-83
2024/04/01 08:51:43;;;;;;;37.00;23.50;;;;;;;11.00;100.00;98670.09;4873291;29;20052;-83
2024/04/01 08:54:11;;;;;;;38.28;23.17;;;;;;;10.93;100.00;98665.09;4903871;29;20671;-84
2024/04/01 08:56:40;;;;;;;32.80;21.92;;;;;;;11.06;100.00;98667.22;4885577;29;20073;-82
2024/04/01 08:59:08;;;;;;;35.35;21.67;;;;;;;11.13;100.00;98673.88;4898317;29;20048;-82
2024/04/01 09:01:35;;;;;;;32.78;22.67;;;;;;;11.11;100.00;98677.47;4889808;29;20084;-83
2024/04/01 09:04:01;;;;;;;34.47;21.83;;;;;;;11.02;100.00;98682.19;4895625;29;20093;-81
2024/04/01 09:06:30;;;;;;;33.10;21.55;;;;;;;10.84;100.00;98685.59;4893396;29;20083;-84
2024/04/01 09:08:56;;;;;;;32.88;20.48;;;;;;;10.86;100.00;98689.84;4904998;29;20108;-82
2024/04/01 09:11:25;;;;;;;26.85;19.50;;;;;;;10.93;100.00;98679.97;4891510;29;20071;-83
2024/04/01 09:13:52;;;;;;;26.50;18.02;;;;;;;10.89;100.00;98674.00;4907819;29;20076;-85
2024/04/01 09:16:22;;;;;;;25.23;17.13;;;;;;;10.89;100.00;98673.16;4902369;29;20040;-83
2024/04/01 09:18:53;;;;;;;25.02;16.55;;;;;;;11.00;100.00;98673.56;4913078;29;20059;-82
2024/04/01 09:21:22;;;;;;;26.27;18.17;;;;;;;11.11;100.00;98667.00;4874960;29;20131;-85
2024/04/01 09:23:49;;;;;;;23.65;17.30;;;;;;;11.19;100.00;98663.16;4900203;29;20052;-84
2024/04/01 09:26:17;;;;;;;23.80;16.58;;;;;;;11.21;100.00;98663.94;4900868;29;20138;-85
2024/04/01 09:28:43;;;;;;;35.25;19.00;;;;;;;11.27;100.00;98651.50;4891271;29;20147;-82
2024/04/01 09:31:10;;;;;;;28.00;16.88;;;;;;;11.37;100.00;98655.41;4889028;29;20155;-83
2024/04/01 09:33:36;;;;;;;24.33;16.73;;;;;;;11.29;100.00;98649.63;4871490;29;20559;-84
2024/04/01 09:36:04;;;;;;;22.17;16.45;;;;;;;11.20;100.00;98662.22;4905157;29;20055;-82
2024/04/01 09:38:34;;;;;;;22.08;16.75;;;;;;;11.10;100.00;98671.41;4886358;29;20048;-85
2024/04/01 09:41:01;;;;;;;26.20;15.70;;;;;;;11.00;100.00;98677.94;4915546;29;20063;-83
2024/04/01 09:43:30;;;;;;;21.27;15.63;;;;;;;11.28;100.00;98655.78;4864077;29;20068;-83
2024/04/01 09:45:58;;;;;;;23.52;17.25;;;;;;;11.35;100.00;98652.84;4894633;29;20143;-83
2024/04/01 09:48:26;;;;;;;24.48;16.08;;;;;;;11.49;100.00;98651.41;4864221;29;20052;-82
2024/04/01 09:51:00;;;;;;;27.70;18.38;;;;;;;11.41;100.00;98651.72;4870284;29;20056;-82
2024/04/01 09:53:28;;;;;;;27.33;17.00;;;;;;;11.41;100.00;98655.19;4885977;29;20079;-83
2024/04/01 09:56:01;;;;;;;24.98;16.45;;;;;;;11.43;100.00;98647.25;4883665;29;20052;-84
2024/04/01 09:59:12;;;;;;;26.10;17.08;;;;;;;11.50;100.00;98650.44;4898355;29;20076;-85
2024/04/01 10:02:29;;;;;;;25.50;17.30;;;;;;;11.41;100.00;98643.88;4886307;29;20044;-84
2024/04/01 10:05:44;;;;;;;23.05;16.45;;;;;;;11.48;100.00;98637.44;4813742;29;20046;-82
2024/04/01 10:08:48;;;;;;;22.77;17.17;;;;;;;11.57;100.00;98644.03;4824582;29;20603;-83
2024/04/01 10:11:58;;;;;;;29.65;20.05;;;;;;;11.62;100.00;98649.06;4898681;29;20055;-84
2024/04/01 10:15:09;;;;;;;28.88;20.38;;;;;;;11.48;100.00;98650.53;4865377;29;20053;-82
2024/04/01 10:18:02;;;;;;;30.65;21.38;;;;;;;11.42;100.00;98645.59;4888863;29;20587;-83
2024/04/01 10:21:19;;;;;;;27.52;19.55;;;;;;;11.44;100.00;98646.34;4901838;29;20072;-84
2024/04/01 10:24:20;;;;;;;28.65;20.42;;;;;;;11.57;100.00;98638.78;4905298;29;20075;-84
2024/04/01 10:27:40;;;;;;;30.63;18.88;;;;;;;11.57;100.00;98617.81;4886635;29;20067;-84
2024/04/01 10:30:59;;;;;;;31.88;20.25;;;;;;;11.74;100.00;98617.03;4884089;29;20357;-84
2024/04/01 10:34:26;;;;;;;25.67;18.55;;;;;;;11.88;100.00;98626.91;4850429;29;20053;-83
2024/04/01 10:37:39;;;;;;;28.90;20.95;;;;;;;11.75;100.00;98606.47;4845540;29;20173;-83
2024/04/01 10:40:55;;;;;;;29.42;19.58;;;;;;;11.84;100.00;98607.81;4883228;29;20048;-83
2024/04/01 10:44:16;;;;;;;29.70;20.50;;;;;;;11.92;100.00;98608.31;4916611;29;20039;-83
2024/04/01 10:47:24;;;;;;;30.13;21.25;;;;;;;11.99;100.00;98615.91;4917790;29;20059;-84
2024/04/01 10:50:36;;;;;;;26.00;18.55;;;;;;;12.08;100.00;98616.34;4870863;29;22313;-84
2024/04/01 10:53:40;;;;;;;23.17;18.33;;;;;;;11.90;100.00;98620.66;4922190;29;20048;-82
2024/04/01 10:56:30;;;;;;;27.40;18.77;;;;;;;11.83;100.00;98615.78;4916009;29;20040;-82
2024/04/01 10:59:28;;;;;;;23.23;17.17;;;;;;;11.85;100.00;98627.03;4902381;29;20059;-81
2024/04/01 11:02:31;;;;;;;27.00;16.98;;;;;;;11.80;100.00;98626.38;4919543;29;20044;-81
2024/04/01 11:05:45;;;;;;;21.33;14.88;;;;;;;11.64;100.00;98631.50;4899530;29;20056;-83
2024/04/01 11:09:19;;;;;;;16.42;12.60;;;;;;;11.67;100.00;98634.81;4887269;29;20058;-83
2024/04/01 11:12:34;;;;;;;19.70;12.93;;;;;;;11.64;100.00;98629.75;4891911;29;20089;-84
2024/04/01 11:15:04;;;;;;;19.08;14.02;;;;;;;11.66;100.00;98629.66;4877370;29;20133;-83
2024/04/01 11:17:35;;;;;;;21.27;14.77;;;;;;;11.56;100.00;98634.47;4914705;29;20135;-83
2024/04/01 11:20:32;;;;;;;21.98;15.70;;;;;;;11.52;100.00;98622.41;4896986;29;20138;-83
2024/04/01 11:23:10;;;;;;;20.92;13.65;;;;;;;11.57;100.00;98630.94;4896720;29;20128;-84
2024/04/01 11:26:02;;;;;;;17.27;12.75;;;;;;;11.61;100.00;98626.41;4885853;29;20048;-86
2024/04/01 11:29:14;;;;;;;18.60;12.93;;;;;;;11.61;100.00;98632.47;4908582;29;20052;-84
2024/04/01 11:31:57;;;;;;;14.50;11.52;;;;;;;11.56;100.00;98624.84;4910963;29;20068;-83
2024/04/01 11:35:14;;;;;;;15.00;11.73;;;;;;;11.59;100.00;98631.72;4908778;29;20515;-85
2024/04/01 11:38:03;;;;;;;15.33;10.97;;;;;;;11.56;100.00;98637.94;4880581;29;20505;-84